To NAV CANADA Home Page Login to a new session Search on AWWS site Feedback and Comments Disclaimer Vers la page française équivalente Tips FAQ What's new on the site To the Forecasts and Observations / NOTAM section To "File a Flight Plan" website Publications and other links Update of the User's profile FIC Telephone Numbers My Weather Data Folder Route Weather Data Regional Weather Data Local Weather Data To the Forecasts and Observations / NOTAM section
Request Generated 02/14/2016 at 03:37:27 UTC . Weather information available at that time is displayed.

METAR/TAF

KITCHENER/WATERLOO/ON    (show WxCam)

SPECI CYKF 140324Z AUTO 31005KT 9SM SCT024 M21/M24 A3037 RMK SLP319=
SPECI CYKF 140314Z AUTO 31005KT 9SM BKN024 BKN240 M21/M24 A3037 RMK
SLP319=
METAR CYKF 140300Z AUTO 28004KT 9SM FEW025 M21/M24 A3037 RMK SLP319=
METAR CYKF 140200Z AUTO 29005KT 9SM CLR M21/M24 A3036 RMK SLP318=
METAR CYKF 140100Z AUTO 31005KT 9SM CLR M20/M23 A3036 RMK SLP316=

TAF AMD CYKF 140320Z 1403/1405 31005KT P6SM SCT020 TEMPO 1403/1405
BKN020
RMK FCST BASED ON AUTO OBS. NXT FCST WILL BE ISSUED AT 141045Z=
Your time UTC time
Weather data provided by Environment Canada and NAV CANADA